sensor_id;sensor_type;location;lat;lon;timestamp;P1;durP1;ratioP1;P2;durP2;ratioP2
17372;SDS011;8803;48.116;11.590;2022-10-31T00:01:23;11.30;;;6.40;;
17372;SDS011;8803;48.116;11.590;2022-10-31T00:03:28;14.07;;;5.97;;
17372;SDS011;8803;48.116;11.590;2022-10-31T00:05:41;10.10;;;5.73;;
17372;SDS011;8803;48.116;11.590;2022-10-31T00:07:47;9.53;;;5.90;;
17372;SDS011;8803;48.116;11.590;2022-10-31T00:09:54;9.60;;;5.53;;
17372;SDS011;8803;48.116;11.590;2022-10-31T00:11:58;10.67;;;5.93;;
17372;SDS011;8803;48.116;11.590;2022-10-31T00:14:10;10.00;;;5.77;;
17372;SDS011;8803;48.116;11.590;2022-10-31T00:16:14;9.20;;;5.40;;
17372;SDS011;8803;48.116;11.590;2022-10-31T00:18:19;9.30;;;5.93;;
17372;SDS011;8803;48.116;11.590;2022-10-31T00:20:22;10.30;;;5.63;;
17372;SDS011;8803;48.116;11.590;2022-10-31T00:22:26;10.87;;;5.30;;
17372;SDS011;8803;48.116;11.590;2022-10-31T00:24:40;9.53;;;5.47;;
17372;SDS011;8803;48.116;11.590;2022-10-31T00:26:43;9.67;;;6.53;;
17372;SDS011;8803;48.116;11.590;2022-10-31T00:30:59;8.17;;;6.03;;
17372;SDS011;8803;48.116;11.590;2022-10-31T00:33:03;9.67;;;6.10;;
17372;SDS011;8803;48.116;11.590;2022-10-31T00:35:17;7.07;;;5.13;;
17372;SDS011;8803;48.116;11.590;2022-10-31T00:37:21;8.83;;;4.97;;
17372;SDS011;8803;48.116;11.590;2022-10-31T00:39:25;8.90;;;5.37;;
17372;SDS011;8803;48.116;11.590;2022-10-31T00:41:38;9.10;;;5.20;;
17372;SDS011;8803;48.116;11.590;2022-10-31T00:43:42;9.67;;;4.77;;
17372;SDS011;8803;48.116;11.590;2022-10-31T00:45:54;8.20;;;5.17;;
17372;SDS011;8803;48.116;11.590;2022-10-31T00:47:58;8.10;;;5.13;;
17372;SDS011;8803;48.116;11.590;2022-10-31T00:50:02;9.60;;;5.33;;
17372;SDS011;8803;48.116;11.590;2022-10-31T00:52:07;9.87;;;5.13;;
17372;SDS011;8803;48.116;11.590;2022-10-31T00:54:19;8.57;;;4.47;;
17372;SDS011;8803;48.116;11.590;2022-10-31T00:56:23;9.90;;;4.73;;
17372;SDS011;8803;48.116;11.590;2022-10-31T00:58:27;7.93;;;4.70;;
17372;SDS011;8803;48.116;11.590;2022-10-31T01:00:31;9.60;;;4.83;;
17372;SDS011;8803;48.116;11.590;2022-10-31T01:02:43;8.53;;;4.90;;
17372;SDS011;8803;48.116;11.590;2022-10-31T01:04:47;10.37;;;4.73;;
17372;SDS011;8803;48.116;11.590;2022-10-31T01:07:02;10.03;;;4.30;;
17372;SDS011;8803;48.116;11.590;2022-10-31T01:09:06;10.90;;;4.80;;
17372;SDS011;8803;48.116;11.590;2022-10-31T01:11:10;10.17;;;4.70;;
17372;SDS011;8803;48.116;11.590;2022-10-31T01:13:16;10.20;;;4.67;;
17372;SDS011;8803;48.116;11.590;2022-10-31T01:15:29;9.53;;;4.47;;
17372;SDS011;8803;48.116;11.590;2022-10-31T01:17:32;7.80;;;4.17;;
17372;SDS011;8803;48.116;11.590;2022-10-31T01:19:37;10.30;;;5.13;;
17372;SDS011;8803;48.116;11.590;2022-10-31T01:21:40;9.67;;;5.10;;
17372;SDS011;8803;48.116;11.590;2022-10-31T01:23:44;7.23;;;4.70;;
17372;SDS011;8803;48.116;11.590;2022-10-31T01:26:04;9.10;;;4.90;;
17372;SDS011;8803;48.116;11.590;2022-10-31T01:28:09;7.40;;;4.27;;
17372;SDS011;8803;48.116;11.590;2022-10-31T01:30:13;7.53;;;4.47;;
17372;SDS011;8803;48.116;11.590;2022-10-31T01:32:17;7.43;;;4.27;;
17372;SDS011;8803;48.116;11.590;2022-10-31T01:34:30;10.80;;;4.60;;
17372;SDS011;8803;48.116;11.590;2022-10-31T01:36:34;7.63;;;4.10;;
17372;SDS011;8803;48.116;11.590;2022-10-31T01:38:39;8.47;;;4.40;;
17372;SDS011;8803;48.116;11.590;2022-10-31T01:40:43;8.83;;;4.73;;
17372;SDS011;8803;48.116;11.590;2022-10-31T01:42:47;9.27;;;4.63;;
17372;SDS011;8803;48.116;11.590;2022-10-31T01:45:01;8.33;;;4.13;;
17372;SDS011;8803;48.116;11.590;2022-10-31T01:47:07;6.73;;;4.60;;
17372;SDS011;8803;48.116;11.590;2022-10-31T01:49:13;9.23;;;4.73;;
17372;SDS011;8803;48.116;11.590;2022-10-31T01:51:20;8.03;;;4.50;;
17372;SDS011;8803;48.116;11.590;2022-10-31T01:53:34;8.83;;;4.67;;
17372;SDS011;8803;48.116;11.590;2022-10-31T01:55:39;5.17;;;4.20;;
17372;SDS011;8803;48.116;11.590;2022-10-31T01:57:53;10.33;;;4.37;;
17372;SDS011;8803;48.116;11.590;2022-10-31T02:00:00;8.07;;;4.30;;
17372;SDS011;8803;48.116;11.590;2022-10-31T02:02:07;7.20;;;4.80;;
17372;SDS011;8803;48.116;11.590;2022-10-31T02:04:20;9.03;;;4.40;;
17372;SDS011;8803;48.116;11.590;2022-10-31T02:06:30;10.80;;;4.80;;
17372;SDS011;8803;48.116;11.590;2022-10-31T02:08:42;10.73;;;4.50;;
17372;SDS011;8803;48.116;11.590;2022-10-31T02:10:47;6.17;;;4.20;;
17372;SDS011;8803;48.116;11.590;2022-10-31T02:12:52;7.17;;;4.17;;
17372;SDS011;8803;48.116;11.590;2022-10-31T02:15:07;8.90;;;4.50;;
17372;SDS011;8803;48.116;11.590;2022-10-31T02:17:12;9.07;;;4.27;;
17372;SDS011;8803;48.116;11.590;2022-10-31T02:19:18;8.33;;;4.43;;
17372;SDS011;8803;48.116;11.590;2022-10-31T02:21:33;6.70;;;4.47;;
17372;SDS011;8803;48.116;11.590;2022-10-31T02:26:37;8.00;;;4.53;;
17372;SDS011;8803;48.116;11.590;2022-10-31T02:29:00;6.90;;;4.30;;
17372;SDS011;8803;48.116;11.590;2022-10-31T02:31:23;5.57;;;4.33;;
17372;SDS011;8803;48.116;11.590;2022-10-31T02:33:31;9.07;;;4.67;;
17372;SDS011;8803;48.116;11.590;2022-10-31T02:35:49;9.83;;;4.63;;
17372;SDS011;8803;48.116;11.590;2022-10-31T02:37:55;6.77;;;4.37;;
17372;SDS011;8803;48.116;11.590;2022-10-31T02:40:04;8.07;;;4.40;;
17372;SDS011;8803;48.116;11.590;2022-10-31T02:42:13;6.10;;;4.53;;
17372;SDS011;8803;48.116;11.590;2022-10-31T02:44:29;5.77;;;4.00;;
17372;SDS011;8803;48.116;11.590;2022-10-31T02:46:37;5.83;;;3.90;;
17372;SDS011;8803;48.116;11.590;2022-10-31T02:48:43;10.03;;;4.30;;
17372;SDS011;8803;48.116;11.590;2022-10-31T02:50:50;5.37;;;3.90;;
17372;SDS011;8803;48.116;11.590;2022-10-31T02:53:03;7.87;;;4.83;;
17372;SDS011;8803;48.116;11.590;2022-10-31T02:55:12;6.17;;;3.80;;
17372;SDS011;8803;48.116;11.590;2022-10-31T02:57:35;6.23;;;3.93;;
17372;SDS011;8803;48.116;11.590;2022-10-31T02:59:48;7.30;;;3.93;;
17372;SDS011;8803;48.116;11.590;2022-10-31T03:02:02;7.70;;;4.63;;
17372;SDS011;8803;48.116;11.590;2022-10-31T03:04:27;7.93;;;4.13;;
17372;SDS011;8803;48.116;11.590;2022-10-31T03:06:39;8.33;;;4.37;;
17372;SDS011;8803;48.116;11.590;2022-10-31T03:08:54;7.37;;;3.87;;
17372;SDS011;8803;48.116;11.590;2022-10-31T03:11:02;6.10;;;3.73;;
17372;SDS011;8803;48.116;11.590;2022-10-31T03:13:10;8.50;;;4.17;;
17372;SDS011;8803;48.116;11.590;2022-10-31T03:15:24;7.23;;;3.83;;
17372;SDS011;8803;48.116;11.590;2022-10-31T03:17:31;9.77;;;4.70;;
17372;SDS011;8803;48.116;11.590;2022-10-31T03:19:45;11.17;;;4.60;;
17372;SDS011;8803;48.116;11.590;2022-10-31T03:21:52;12.57;;;4.97;;
17372;SDS011;8803;48.116;11.590;2022-10-31T03:24:06;10.17;;;4.37;;
17372;SDS011;8803;48.116;11.590;2022-10-31T03:26:11;12.53;;;5.50;;
17372;SDS011;8803;48.116;11.590;2022-10-31T03:28:18;12.53;;;5.10;;
17372;SDS011;8803;48.116;11.590;2022-10-31T03:30:25;12.00;;;4.90;;
17372;SDS011;8803;48.116;11.590;2022-10-31T03:32:29;10.33;;;4.83;;
17372;SDS011;8803;48.116;11.590;2022-10-31T03:34:43;12.03;;;5.00;;
17372;SDS011;8803;48.116;11.590;2022-10-31T03:36:49;9.03;;;4.53;;
17372;SDS011;8803;48.116;11.590;2022-10-31T03:38:55;8.53;;;4.43;;
17372;SDS011;8803;48.116;11.590;2022-10-31T03:41:02;12.20;;;5.03;;
17372;SDS011;8803;48.116;11.590;2022-10-31T03:43:09;12.70;;;5.13;;
17372;SDS011;8803;48.116;11.590;2022-10-31T03:45:23;6.93;;;4.33;;
17372;SDS011;8803;48.116;11.590;2022-10-31T03:47:28;8.70;;;4.77;;
17372;SDS011;8803;48.116;11.590;2022-10-31T03:49:32;6.33;;;4.43;;
17372;SDS011;8803;48.116;11.590;2022-10-31T03:51:38;7.70;;;4.60;;
17372;SDS011;8803;48.116;11.590;2022-10-31T03:53:45;9.83;;;4.50;;
17372;SDS011;8803;48.116;11.590;2022-10-31T03:55:59;7.20;;;4.33;;
17372;SDS011;8803;48.116;11.590;2022-10-31T03:58:06;7.30;;;4.73;;
17372;SDS011;8803;48.116;11.590;2022-10-31T04:00:13;7.57;;;4.40;;
17372;SDS011;8803;48.116;11.590;2022-10-31T04:02:18;8.40;;;3.90;;
17372;SDS011;8803;48.116;11.590;2022-10-31T04:04:33;5.73;;;3.53;;
17372;SDS011;8803;48.116;11.590;2022-10-31T04:06:38;8.23;;;4.20;;
17372;SDS011;8803;48.116;11.590;2022-10-31T04:08:45;7.53;;;4.50;;
17372;SDS011;8803;48.116;11.590;2022-10-31T04:10:59;5.80;;;3.83;;
17372;SDS011;8803;48.116;11.590;2022-10-31T04:13:05;7.20;;;4.07;;
17372;SDS011;8803;48.116;11.590;2022-10-31T04:15:21;8.80;;;4.10;;
17372;SDS011;8803;48.116;11.590;2022-10-31T04:17:28;8.40;;;3.67;;
17372;SDS011;8803;48.116;11.590;2022-10-31T04:19:34;8.93;;;3.93;;
17372;SDS011;8803;48.116;11.590;2022-10-31T04:21:38;6.10;;;4.10;;
17372;SDS011;8803;48.116;11.590;2022-10-31T04:23:50;5.27;;;3.57;;
17372;SDS011;8803;48.116;11.590;2022-10-31T04:25:54;8.03;;;3.57;;
17372;SDS011;8803;48.116;11.590;2022-10-31T04:28:07;6.13;;;3.90;;
17372;SDS011;8803;48.116;11.590;2022-10-31T04:30:11;6.70;;;3.57;;
17372;SDS011;8803;48.116;11.590;2022-10-31T04:32:24;5.83;;;3.80;;
17372;SDS011;8803;48.116;11.590;2022-10-31T04:34:28;6.63;;;3.50;;
17372;SDS011;8803;48.116;11.590;2022-10-31T04:36:40;7.67;;;3.60;;
17372;SDS011;8803;48.116;11.590;2022-10-31T04:38:44;9.43;;;4.03;;
17372;SDS011;8803;48.116;11.590;2022-10-31T04:40:48;6.27;;;3.73;;
17372;SDS011;8803;48.116;11.590;2022-10-31T04:42:53;6.47;;;3.37;;
17372;SDS011;8803;48.116;11.590;2022-10-31T04:45:06;8.63;;;3.63;;
17372;SDS011;8803;48.116;11.590;2022-10-31T04:47:11;8.23;;;3.90;;
17372;SDS011;8803;48.116;11.590;2022-10-31T04:49:15;6.27;;;4.00;;
17372;SDS011;8803;48.116;11.590;2022-10-31T04:51:19;7.20;;;3.60;;
17372;SDS011;8803;48.116;11.590;2022-10-31T04:53:23;10.43;;;3.90;;
17372;SDS011;8803;48.116;11.590;2022-10-31T04:55:36;6.40;;;3.77;;
17372;SDS011;8803;48.116;11.590;2022-10-31T04:57:43;5.90;;;3.40;;
17372;SDS011;8803;48.116;11.590;2022-10-31T04:59:49;5.63;;;3.10;;
17372;SDS011;8803;48.116;11.590;2022-10-31T05:01:53;6.20;;;3.73;;
17372;SDS011;8803;48.116;11.590;2022-10-31T05:03:56;10.87;;;4.03;;
17372;SDS011;8803;48.116;11.590;2022-10-31T05:06:09;6.63;;;3.77;;
17372;SDS011;8803;48.116;11.590;2022-10-31T05:08:13;7.10;;;3.63;;
17372;SDS011;8803;48.116;11.590;2022-10-31T05:10:26;7.43;;;3.87;;
17372;SDS011;8803;48.116;11.590;2022-10-31T05:12:31;8.90;;;3.90;;
17372;SDS011;8803;48.116;11.590;2022-10-31T05:14:43;6.23;;;3.50;;
17372;SDS011;8803;48.116;11.590;2022-10-31T05:16:47;5.97;;;3.50;;
17372;SDS011;8803;48.116;11.590;2022-10-31T05:18:51;5.17;;;3.30;;
17372;SDS011;8803;48.116;11.590;2022-10-31T05:20:55;6.93;;;3.63;;
17372;SDS011;8803;48.116;11.590;2022-10-31T05:22:58;7.40;;;3.67;;
17372;SDS011;8803;48.116;11.590;2022-10-31T05:25:11;7.43;;;3.73;;
17372;SDS011;8803;48.116;11.590;2022-10-31T05:27:16;7.53;;;4.07;;
17372;SDS011;8803;48.116;11.590;2022-10-31T05:29:19;8.80;;;3.93;;
17372;SDS011;8803;48.116;11.590;2022-10-31T05:31:23;7.90;;;4.00;;
17372;SDS011;8803;48.116;11.590;2022-10-31T05:33:27;7.13;;;3.93;;
17372;SDS011;8803;48.116;11.590;2022-10-31T05:35:40;8.30;;;3.93;;
17372;SDS011;8803;48.116;11.590;2022-10-31T05:37:43;5.93;;;4.03;;
17372;SDS011;8803;48.116;11.590;2022-10-31T05:39:47;9.17;;;4.03;;
17372;SDS011;8803;48.116;11.590;2022-10-31T05:41:51;6.53;;;3.80;;
17372;SDS011;8803;48.116;11.590;2022-10-31T05:43:55;5.83;;;3.47;;
17372;SDS011;8803;48.116;11.590;2022-10-31T05:46:07;7.03;;;3.70;;
17372;SDS011;8803;48.116;11.590;2022-10-31T05:48:11;7.33;;;3.70;;
17372;SDS011;8803;48.116;11.590;2022-10-31T05:50:15;11.03;;;4.10;;
17372;SDS011;8803;48.116;11.590;2022-10-31T05:52:19;5.60;;;3.67;;
17372;SDS011;8803;48.116;11.590;2022-10-31T05:54:33;6.53;;;3.87;;
17372;SDS011;8803;48.116;11.590;2022-10-31T05:56:37;5.80;;;3.17;;
17372;SDS011;8803;48.116;11.590;2022-10-31T05:58:40;5.67;;;3.80;;
17372;SDS011;8803;48.116;11.590;2022-10-31T06:00:44;8.03;;;4.37;;
17372;SDS011;8803;48.116;11.590;2022-10-31T06:02:58;11.10;;;4.43;;
17372;SDS011;8803;48.116;11.590;2022-10-31T06:05:04;11.07;;;4.27;;
17372;SDS011;8803;48.116;11.590;2022-10-31T06:07:08;8.90;;;4.27;;
17372;SDS011;8803;48.116;11.590;2022-10-31T06:09:20;6.77;;;4.47;;
17372;SDS011;8803;48.116;11.590;2022-10-31T06:11:24;5.87;;;3.80;;
17372;SDS011;8803;48.116;11.590;2022-10-31T06:13:37;7.27;;;3.97;;
17372;SDS011;8803;48.116;11.590;2022-10-31T06:15:41;11.70;;;4.70;;
17372;SDS011;8803;48.116;11.590;2022-10-31T06:18:00;11.10;;;4.37;;
17372;SDS011;8803;48.116;11.590;2022-10-31T06:20:07;9.67;;;5.97;;
17372;SDS011;8803;48.116;11.590;2022-10-31T06:22:11;15.23;;;8.10;;
17372;SDS011;8803;48.116;11.590;2022-10-31T06:24:24;10.60;;;6.00;;
17372;SDS011;8803;48.116;11.590;2022-10-31T06:26:28;9.97;;;5.47;;
17372;SDS011;8803;48.116;11.590;2022-10-31T06:28:32;9.27;;;5.70;;
17372;SDS011;8803;48.116;11.590;2022-10-31T06:30:35;11.63;;;5.10;;
17372;SDS011;8803;48.116;11.590;2022-10-31T06:32:39;7.60;;;4.80;;
17372;SDS011;8803;48.116;11.590;2022-10-31T06:34:52;9.23;;;4.30;;
17372;SDS011;8803;48.116;11.590;2022-10-31T06:36:56;7.60;;;4.83;;
17372;SDS011;8803;48.116;11.590;2022-10-31T06:39:00;6.50;;;4.30;;
17372;SDS011;8803;48.116;11.590;2022-10-31T06:41:04;5.80;;;3.90;;
17372;SDS011;8803;48.116;11.590;2022-10-31T06:45:20;5.73;;;3.70;;
17372;SDS011;8803;48.116;11.590;2022-10-31T06:47:24;9.60;;;4.00;;
17372;SDS011;8803;48.116;11.590;2022-10-31T06:49:28;5.97;;;3.20;;
17372;SDS011;8803;48.116;11.590;2022-10-31T06:51:31;5.63;;;3.77;;
17372;SDS011;8803;48.116;11.590;2022-10-31T06:53:35;6.57;;;3.70;;
17372;SDS011;8803;48.116;11.590;2022-10-31T06:55:48;6.33;;;3.50;;
17372;SDS011;8803;48.116;11.590;2022-10-31T06:57:52;8.17;;;3.67;;
17372;SDS011;8803;48.116;11.590;2022-10-31T06:59:56;9.33;;;4.00;;
17372;SDS011;8803;48.116;11.590;2022-10-31T07:02:00;7.43;;;3.87;;
17372;SDS011;8803;48.116;11.590;2022-10-31T07:04:13;4.67;;;3.47;;
17372;SDS011;8803;48.116;11.590;2022-10-31T07:06:17;6.77;;;3.93;;
17372;SDS011;8803;48.116;11.590;2022-10-31T07:08:32;6.77;;;3.87;;
17372;SDS011;8803;48.116;11.590;2022-10-31T07:10:36;7.90;;;4.03;;
17372;SDS011;8803;48.116;11.590;2022-10-31T07:12:41;5.90;;;3.77;;
17372;SDS011;8803;48.116;11.590;2022-10-31T07:14:45;5.23;;;3.60;;
17372;SDS011;8803;48.116;11.590;2022-10-31T07:16:57;4.97;;;3.47;;
17372;SDS011;8803;48.116;11.590;2022-10-31T07:19:01;7.37;;;3.83;;
17372;SDS011;8803;48.116;11.590;2022-10-31T07:21:14;6.33;;;3.47;;
17372;SDS011;8803;48.116;11.590;2022-10-31T07:23:17;4.13;;;3.40;;
17372;SDS011;8803;48.116;11.590;2022-10-31T07:25:32;8.00;;;3.90;;
17372;SDS011;8803;48.116;11.590;2022-10-31T07:27:36;6.57;;;3.80;;
17372;SDS011;8803;48.116;11.590;2022-10-31T07:29:40;9.70;;;4.30;;
17372;SDS011;8803;48.116;11.590;2022-10-31T07:31:45;5.87;;;3.30;;
17372;SDS011;8803;48.116;11.590;2022-10-31T07:33:49;5.67;;;3.70;;
17372;SDS011;8803;48.116;11.590;2022-10-31T07:35:53;7.20;;;3.67;;
17372;SDS011;8803;48.116;11.590;2022-10-31T07:38:08;6.40;;;3.57;;
17372;SDS011;8803;48.116;11.590;2022-10-31T07:40:13;5.17;;;3.50;;
17372;SDS011;8803;48.116;11.590;2022-10-31T07:42:26;9.07;;;3.90;;
17372;SDS011;8803;48.116;11.590;2022-10-31T07:44:30;6.97;;;3.83;;
17372;SDS011;8803;48.116;11.590;2022-10-31T07:46:44;7.87;;;3.93;;
17372;SDS011;8803;48.116;11.590;2022-10-31T07:48:48;5.50;;;3.70;;
17372;SDS011;8803;48.116;11.590;2022-10-31T07:50:52;6.20;;;3.70;;
17372;SDS011;8803;48.116;11.590;2022-10-31T07:53:00;6.87;;;3.60;;
17372;SDS011;8803;48.116;11.590;2022-10-31T07:55:15;8.20;;;3.50;;
17372;SDS011;8803;48.116;11.590;2022-10-31T07:57:19;8.70;;;3.93;;
17372;SDS011;8803;48.116;11.590;2022-10-31T07:59:34;7.07;;;3.97;;
17372;SDS011;8803;48.116;11.590;2022-10-31T08:01:38;7.20;;;4.03;;
17372;SDS011;8803;48.116;11.590;2022-10-31T08:05:56;6.40;;;3.67;;
17372;SDS011;8803;48.116;11.590;2022-10-31T08:08:00;9.30;;;4.20;;
17372;SDS011;8803;48.116;11.590;2022-10-31T08:10:05;10.17;;;4.53;;
17372;SDS011;8803;48.116;11.590;2022-10-31T08:12:09;9.93;;;4.27;;
17372;SDS011;8803;48.116;11.590;2022-10-31T08:14:13;6.57;;;3.83;;
17372;SDS011;8803;48.116;11.590;2022-10-31T08:16:26;6.17;;;3.70;;
17372;SDS011;8803;48.116;11.590;2022-10-31T08:18:30;9.00;;;3.57;;
17372;SDS011;8803;48.116;11.590;2022-10-31T08:20:34;6.87;;;3.20;;
17372;SDS011;8803;48.116;11.590;2022-10-31T08:22:38;11.27;;;4.17;;
17372;SDS011;8803;48.116;11.590;2022-10-31T08:24:50;9.63;;;3.67;;
17372;SDS011;8803;48.116;11.590;2022-10-31T08:26:54;7.87;;;3.37;;
17372;SDS011;8803;48.116;11.590;2022-10-31T08:28:58;9.13;;;3.00;;
17372;SDS011;8803;48.116;11.590;2022-10-31T08:31:02;6.87;;;3.23;;
17372;SDS011;8803;48.116;11.590;2022-10-31T08:33:15;4.80;;;3.07;;
17372;SDS011;8803;48.116;11.590;2022-10-31T08:35:20;6.73;;;3.57;;
17372;SDS011;8803;48.116;11.590;2022-10-31T08:37:32;6.33;;;3.30;;
17372;SDS011;8803;48.116;11.590;2022-10-31T08:39:36;10.30;;;4.00;;
17372;SDS011;8803;48.116;11.590;2022-10-31T08:41:49;8.63;;;4.73;;
17372;SDS011;8803;48.116;11.590;2022-10-31T08:43:53;7.13;;;4.27;;
17372;SDS011;8803;48.116;11.590;2022-10-31T08:46:07;6.77;;;4.03;;
17372;SDS011;8803;48.116;11.590;2022-10-31T08:48:11;6.67;;;4.10;;
17372;SDS011;8803;48.116;11.590;2022-10-31T08:50:26;7.20;;;4.67;;
17372;SDS011;8803;48.116;11.590;2022-10-31T08:52:31;7.23;;;4.40;;
17372;SDS011;8803;48.116;11.590;2022-10-31T08:54:43;7.90;;;5.23;;
17372;SDS011;8803;48.116;11.590;2022-10-31T08:56:47;8.93;;;5.00;;
17372;SDS011;8803;48.116;11.590;2022-10-31T08:58:53;9.77;;;5.23;;
17372;SDS011;8803;48.116;11.590;2022-10-31T09:00:58;7.63;;;4.83;;
17372;SDS011;8803;48.116;11.590;2022-10-31T09:03:12;9.87;;;5.50;;
17372;SDS011;8803;48.116;11.590;2022-10-31T09:05:27;10.67;;;5.67;;
17372;SDS011;8803;48.116;11.590;2022-10-31T09:07:31;10.43;;;4.70;;
17372;SDS011;8803;48.116;11.590;2022-10-31T09:09:43;8.13;;;4.93;;
17372;SDS011;8803;48.116;11.590;2022-10-31T09:11:47;9.07;;;5.27;;
17372;SDS011;8803;48.116;11.590;2022-10-31T09:13:52;8.40;;;5.47;;
17372;SDS011;8803;48.116;11.590;2022-10-31T09:16:06;9.00;;;5.03;;
17372;SDS011;8803;48.116;11.590;2022-10-31T09:18:10;9.50;;;5.47;;
17372;SDS011;8803;48.116;11.590;2022-10-31T09:20:15;9.33;;;5.90;;
17372;SDS011;8803;48.116;11.590;2022-10-31T09:22:19;8.10;;;5.03;;
17372;SDS011;8803;48.116;11.590;2022-10-31T09:24:32;7.83;;;4.60;;
17372;SDS011;8803;48.116;11.590;2022-10-31T09:26:36;7.47;;;4.77;;
17372;SDS011;8803;48.116;11.590;2022-10-31T09:28:40;12.30;;;5.03;;
17372;SDS011;8803;48.116;11.590;2022-10-31T09:30:46;8.80;;;4.70;;
17372;SDS011;8803;48.116;11.590;2022-10-31T09:32:55;7.17;;;4.40;;
17372;SDS011;8803;48.116;11.590;2022-10-31T09:35:08;12.47;;;4.80;;
17372;SDS011;8803;48.116;11.590;2022-10-31T09:37:11;6.67;;;3.80;;
17372;SDS011;8803;48.116;11.590;2022-10-31T09:39:15;7.77;;;4.10;;
17372;SDS011;8803;48.116;11.590;2022-10-31T09:41:21;9.90;;;4.23;;
17372;SDS011;8803;48.116;11.590;2022-10-31T09:43:28;11.77;;;4.87;;
17372;SDS011;8803;48.116;11.590;2022-10-31T09:45:43;6.00;;;3.97;;
17372;SDS011;8803;48.116;11.590;2022-10-31T09:47:55;8.00;;;4.00;;
17372;SDS011;8803;48.116;11.590;2022-10-31T09:50:27;10.63;;;4.17;;
17372;SDS011;8803;48.116;11.590;2022-10-31T09:52:33;7.13;;;3.90;;
17372;SDS011;8803;48.116;11.590;2022-10-31T09:54:49;7.03;;;2.97;;
17372;SDS011;8803;48.116;11.590;2022-10-31T09:56:55;6.93;;;3.70;;
17372;SDS011;8803;48.116;11.590;2022-10-31T09:59:02;7.47;;;3.50;;
17372;SDS011;8803;48.116;11.590;2022-10-31T10:01:19;8.97;;;3.40;;
17372;SDS011;8803;48.116;11.590;2022-10-31T10:03:31;4.00;;;2.80;;
17372;SDS011;8803;48.116;11.590;2022-10-31T10:05:46;7.47;;;3.20;;
17372;SDS011;8803;48.116;11.590;2022-10-31T10:07:54;6.40;;;3.50;;
17372;SDS011;8803;48.116;11.590;2022-10-31T10:10:13;10.13;;;3.70;;
17372;SDS011;8803;48.116;11.590;2022-10-31T10:12:22;5.37;;;2.90;;
17372;SDS011;8803;48.116;11.590;2022-10-31T10:14:38;8.33;;;3.20;;
17372;SDS011;8803;48.116;11.590;2022-10-31T10:16:51;6.23;;;3.37;;
17372;SDS011;8803;48.116;11.590;2022-10-31T10:19:04;4.80;;;2.67;;
17372;SDS011;8803;48.116;11.590;2022-10-31T10:21:16;8.13;;;2.90;;
17372;SDS011;8803;48.116;11.590;2022-10-31T10:23:28;9.00;;;3.53;;
17372;SDS011;8803;48.116;11.590;2022-10-31T10:25:44;7.80;;;3.43;;
17372;SDS011;8803;48.116;11.590;2022-10-31T10:27:54;9.30;;;3.40;;
17372;SDS011;8803;48.116;11.590;2022-10-31T10:30:03;9.33;;;3.00;;
17372;SDS011;8803;48.116;11.590;2022-10-31T10:32:20;3.53;;;2.60;;
17372;SDS011;8803;48.116;11.590;2022-10-31T10:34:26;7.27;;;3.33;;
17372;SDS011;8803;48.116;11.590;2022-10-31T10:36:32;8.07;;;3.50;;
17372;SDS011;8803;48.116;11.590;2022-10-31T10:38:48;6.40;;;3.30;;
17372;SDS011;8803;48.116;11.590;2022-10-31T10:40:54;5.17;;;3.00;;
17372;SDS011;8803;48.116;11.590;2022-10-31T10:43:04;9.90;;;3.60;;
17372;SDS011;8803;48.116;11.590;2022-10-31T10:45:20;9.70;;;3.33;;
17372;SDS011;8803;48.116;11.590;2022-10-31T10:47:43;8.53;;;3.17;;
17372;SDS011;8803;48.116;11.590;2022-10-31T10:49:49;5.07;;;2.97;;
17372;SDS011;8803;48.116;11.590;2022-10-31T10:51:55;11.07;;;3.47;;
17372;SDS011;8803;48.116;11.590;2022-10-31T10:56:16;9.73;;;2.93;;
17372;SDS011;8803;48.116;11.590;2022-10-31T10:58:22;6.40;;;2.90;;
17372;SDS011;8803;48.116;11.590;2022-10-31T11:00:35;15.20;;;3.10;;
17372;SDS011;8803;48.116;11.590;2022-10-31T11:02:42;9.37;;;3.30;;
17372;SDS011;8803;48.116;11.590;2022-10-31T11:04:56;7.30;;;3.40;;
17372;SDS011;8803;48.116;11.590;2022-10-31T11:07:03;11.73;;;3.20;;
17372;SDS011;8803;48.116;11.590;2022-10-31T11:09:09;8.90;;;3.07;;
17372;SDS011;8803;48.116;11.590;2022-10-31T11:11:18;12.73;;;3.60;;
17372;SDS011;8803;48.116;11.590;2022-10-31T11:13:24;6.43;;;2.70;;
17372;SDS011;8803;48.116;11.590;2022-10-31T11:15:49;8.63;;;3.40;;
17372;SDS011;8803;48.116;11.590;2022-10-31T11:17:56;6.33;;;2.90;;
17372;SDS011;8803;48.116;11.590;2022-10-31T11:20:00;10.67;;;3.30;;
17372;SDS011;8803;48.116;11.590;2022-10-31T11:22:07;6.60;;;2.70;;
17372;SDS011;8803;48.116;11.590;2022-10-31T11:26:27;6.60;;;3.13;;
17372;SDS011;8803;48.116;11.590;2022-10-31T11:28:32;6.03;;;3.00;;
17372;SDS011;8803;48.116;11.590;2022-10-31T11:32:49;7.37;;;3.23;;
17372;SDS011;8803;48.116;11.590;2022-10-31T11:34:54;11.10;;;3.80;;
17372;SDS011;8803;48.116;11.590;2022-10-31T11:37:10;7.33;;;3.07;;
17372;SDS011;8803;48.116;11.590;2022-10-31T11:39:17;8.63;;;2.70;;
17372;SDS011;8803;48.116;11.590;2022-10-31T11:41:25;8.20;;;3.07;;
17372;SDS011;8803;48.116;11.590;2022-10-31T11:43:30;8.73;;;3.00;;
17372;SDS011;8803;48.116;11.590;2022-10-31T11:45:43;6.43;;;2.60;;
17372;SDS011;8803;48.116;11.590;2022-10-31T11:47:48;6.90;;;2.57;;
17372;SDS011;8803;48.116;11.590;2022-10-31T11:49:56;8.63;;;3.13;;
17372;SDS011;8803;48.116;11.590;2022-10-31T11:52:04;9.27;;;3.23;;
17372;SDS011;8803;48.116;11.590;2022-10-31T11:54:20;9.67;;;3.43;;
17372;SDS011;8803;48.116;11.590;2022-10-31T11:56:27;8.83;;;3.03;;
17372;SDS011;8803;48.116;11.590;2022-10-31T11:58:55;4.93;;;2.60;;
17372;SDS011;8803;48.116;11.590;2022-10-31T12:01:00;9.43;;;3.10;;
17372;SDS011;8803;48.116;11.590;2022-10-31T12:03:09;9.47;;;3.43;;
17372;SDS011;8803;48.116;11.590;2022-10-31T12:05:23;8.40;;;2.90;;
17372;SDS011;8803;48.116;11.590;2022-10-31T12:07:30;8.23;;;3.30;;
17372;SDS011;8803;48.116;11.590;2022-10-31T12:09:34;7.17;;;2.83;;
17372;SDS011;8803;48.116;11.590;2022-10-31T12:11:44;6.60;;;3.00;;
17372;SDS011;8803;48.116;11.590;2022-10-31T12:14:05;9.60;;;2.80;;
17372;SDS011;8803;48.116;11.590;2022-10-31T12:16:15;11.47;;;3.90;;
17372;SDS011;8803;48.116;11.590;2022-10-31T12:18:34;10.53;;;3.30;;
17372;SDS011;8803;48.116;11.590;2022-10-31T12:20:48;6.03;;;2.63;;
17372;SDS011;8803;48.116;11.590;2022-10-31T12:22:56;8.93;;;3.00;;
17372;SDS011;8803;48.116;11.590;2022-10-31T12:25:16;7.93;;;2.93;;
17372;SDS011;8803;48.116;11.590;2022-10-31T12:27:34;6.03;;;2.73;;
17372;SDS011;8803;48.116;11.590;2022-10-31T12:29:55;7.80;;;2.63;;
17372;SDS011;8803;48.116;11.590;2022-10-31T12:32:08;9.17;;;3.27;;
17372;SDS011;8803;48.116;11.590;2022-10-31T12:34:30;5.43;;;2.90;;
17372;SDS011;8803;48.116;11.590;2022-10-31T12:36:54;8.63;;;3.23;;
17372;SDS011;8803;48.116;11.590;2022-10-31T12:39:17;6.67;;;3.07;;
17372;SDS011;8803;48.116;11.590;2022-10-31T12:41:34;8.30;;;3.03;;
17372;SDS011;8803;48.116;11.590;2022-10-31T12:43:43;9.67;;;3.33;;
17372;SDS011;8803;48.116;11.590;2022-10-31T12:45:53;8.20;;;3.27;;
17372;SDS011;8803;48.116;11.590;2022-10-31T12:48:10;5.93;;;3.20;;
17372;SDS011;8803;48.116;11.590;2022-10-31T12:50:25;8.27;;;2.90;;
17372;SDS011;8803;48.116;11.590;2022-10-31T12:52:44;7.97;;;2.97;;
17372;SDS011;8803;48.116;11.590;2022-10-31T12:54:56;4.40;;;3.33;;
17372;SDS011;8803;48.116;11.590;2022-10-31T12:57:10;8.27;;;3.27;;
17372;SDS011;8803;48.116;11.590;2022-10-31T12:59:28;11.17;;;3.80;;
17372;SDS011;8803;48.116;11.590;2022-10-31T13:01:35;8.53;;;3.60;;
17372;SDS011;8803;48.116;11.590;2022-10-31T13:03:44;8.20;;;3.03;;
17372;SDS011;8803;48.116;11.590;2022-10-31T13:06:02;7.83;;;3.17;;
17372;SDS011;8803;48.116;11.590;2022-10-31T13:08:07;12.90;;;4.37;;
17372;SDS011;8803;48.116;11.590;2022-10-31T13:10:22;9.73;;;3.30;;